createdAt,value
2023-03-03T00:00:05.767Z,101213.96
2023-03-03T00:02:56.474Z,101215.80
2023-03-03T00:05:27.425Z,101208.95
2023-03-03T00:07:58.116Z,101204.38
2023-03-03T00:10:29.091Z,101203.56
2023-03-03T00:13:00.497Z,101196.34
2023-03-03T00:15:31.653Z,101194.52
2023-03-03T00:18:03.612Z,101193.11
2023-03-03T00:20:38.878Z,101188.55
2023-03-03T00:23:21.295Z,101182.64
2023-03-03T00:25:52.916Z,101181.00
2023-03-03T00:28:28.133Z,101174.08
2023-03-03T00:30:59.960Z,101172.23
2023-03-03T00:33:33.652Z,101170.66
2023-03-03T00:36:17.813Z,101168.73
2023-03-03T00:38:48.801Z,101163.66
2023-03-03T00:41:20.173Z,101162.03
2023-03-03T00:43:51.141Z,101156.11
2023-03-03T00:46:22.624Z,101154.28
2023-03-03T00:48:53.544Z,101149.35
2023-03-03T00:51:31.555Z,101147.91
2023-03-03T00:54:02.407Z,101143.40
2023-03-03T00:56:33.273Z,101141.42
2023-03-03T00:59:04.161Z,101139.72
2023-03-03T01:01:35.047Z,101138.56
2023-03-03T01:04:06.012Z,101136.73
2023-03-03T01:06:36.788Z,101135.20
2023-03-03T01:09:07.767Z,101129.30
2023-03-03T01:11:38.574Z,101132.89
2023-03-03T01:14:09.386Z,101129.15
2023-03-03T01:16:41.765Z,101126.73
2023-03-03T01:19:12.643Z,101126.17
2023-03-03T01:21:43.531Z,101126.32
2023-03-03T01:24:14.533Z,101122.98
2023-03-03T01:26:45.269Z,101121.02
2023-03-03T01:29:16.095Z,101120.02
2023-03-03T01:31:46.867Z,101120.98
2023-03-03T01:34:17.712Z,101117.83
2023-03-03T01:36:50.681Z,101113.08
2023-03-03T01:39:21.542Z,101111.91
2023-03-03T01:41:52.265Z,101111.92
2023-03-03T01:44:23.243Z,101111.64
2023-03-03T01:46:55.361Z,101111.14
2023-03-03T01:49:27.014Z,101109.45
2023-03-03T01:51:58.668Z,101108.56
2023-03-03T01:54:31.412Z,101107.52
2023-03-03T01:57:02.950Z,101105.28
2023-03-03T01:59:35.091Z,101103.60
2023-03-03T02:02:06.199Z,101099.36
2023-03-03T02:04:37.309Z,101099.83
2023-03-03T02:07:11.055Z,101097.54
2023-03-03T02:09:45.367Z,101094.62
2023-03-03T02:12:16.902Z,101093.90
2023-03-03T02:14:47.872Z,101089.58
2023-03-03T02:17:18.720Z,101088.08
2023-03-03T02:19:51.897Z,101087.85
2023-03-03T02:22:25.648Z,101085.80
2023-03-03T02:24:57.342Z,101085.36
2023-03-03T02:27:28.566Z,101087.41
2023-03-03T02:29:59.868Z,101083.35
2023-03-03T02:32:30.649Z,101082.95
2023-03-03T02:35:01.468Z,101079.08
2023-03-03T02:37:32.545Z,101076.97
2023-03-03T02:40:03.182Z,101074.12
2023-03-03T02:42:34.005Z,101069.45
2023-03-03T02:45:04.797Z,101067.96
2023-03-03T02:47:35.580Z,101066.86
2023-03-03T02:50:07.415Z,101062.27
2023-03-03T02:52:38.294Z,101060.96
2023-03-03T02:55:10.561Z,101060.55
2023-03-03T02:57:41.375Z,101057.63
2023-03-03T03:00:13.054Z,101054.31
2023-03-03T03:02:43.812Z,101054.73
2023-03-03T03:05:14.730Z,101050.60
2023-03-03T03:07:45.666Z,101050.90
2023-03-03T03:10:16.579Z,101044.65
2023-03-03T03:12:47.397Z,101047.20
2023-03-03T03:15:18.427Z,101041.73
2023-03-03T03:17:49.083Z,101042.85
2023-03-03T03:20:20.083Z,101039.73
2023-03-03T03:22:50.951Z,101040.74
2023-03-03T03:25:21.838Z,101041.96
2023-03-03T03:27:52.575Z,101036.65
2023-03-03T03:30:23.350Z,101035.25
2023-03-03T03:32:54.201Z,101034.40
2023-03-03T03:35:25.052Z,101036.15
2023-03-03T03:37:55.914Z,101034.88
2023-03-03T03:40:26.963Z,101038.75
2023-03-03T03:42:57.842Z,101039.03
2023-03-03T03:45:28.564Z,101035.35
2023-03-03T03:47:59.348Z,101033.64
2023-03-03T03:50:31.163Z,101034.33
2023-03-03T03:53:01.951Z,101032.13
2023-03-03T03:55:32.904Z,101027.53
2023-03-03T03:58:03.932Z,101030.21
2023-03-03T04:00:34.717Z,101026.80
2023-03-03T04:03:05.598Z,101022.73
2023-03-03T04:05:36.505Z,101020.00
2023-03-03T04:08:07.635Z,101018.36
2023-03-03T04:10:38.578Z,101016.64
2023-03-03T04:13:09.332Z,101013.83
2023-03-03T04:15:40.285Z,101014.80
2023-03-03T04:18:11.268Z,101016.17
2023-03-03T04:20:42.726Z,101019.42
2023-03-03T04:23:14.922Z,101021.73
2023-03-03T04:25:45.727Z,101023.46
2023-03-03T04:28:16.670Z,101022.99
2023-03-03T04:30:47.554Z,101026.61
2023-03-03T04:33:18.329Z,101025.05
2023-03-03T04:35:49.216Z,101024.36
2023-03-03T04:38:20.228Z,101021.73
2023-03-03T04:40:59.561Z,101021.02
2023-03-03T04:43:31.236Z,101017.75
2023-03-03T04:46:08.129Z,101011.85
2023-03-03T04:48:39.655Z,101012.71
2023-03-03T04:51:10.516Z,101007.14
2023-03-03T04:53:41.410Z,101010.33
2023-03-03T04:56:12.290Z,101009.75
2023-03-03T04:58:43.001Z,101010.21
2023-03-03T05:01:14.010Z,101015.41
2023-03-03T05:06:46.771Z,101019.04
2023-03-03T05:09:17.511Z,101016.39
2023-03-03T05:11:48.265Z,101019.80
2023-03-03T05:14:18.935Z,101022.65
2023-03-03T05:16:49.676Z,101025.13
2023-03-03T05:19:20.564Z,101021.17
2023-03-03T05:21:51.403Z,101023.65
2023-03-03T05:24:22.324Z,101023.18
2023-03-03T05:26:52.987Z,101025.70
2023-03-03T05:29:23.929Z,101024.50
2023-03-03T05:31:54.871Z,101024.34
2023-03-03T05:34:25.887Z,101025.69
2023-03-03T05:36:56.701Z,101026.16
2023-03-03T05:39:27.493Z,101022.98
2023-03-03T05:41:58.322Z,101022.89
2023-03-03T05:44:29.175Z,101019.71
2023-03-03T05:47:00.291Z,101022.89
2023-03-03T05:49:31.141Z,101023.23
2023-03-03T05:52:01.916Z,101025.29
2023-03-03T05:54:32.833Z,101025.67
2023-03-03T05:57:03.880Z,101028.19
2023-03-03T05:59:34.815Z,101029.16
2023-03-03T06:02:05.826Z,101031.02
2023-03-03T06:04:36.762Z,101030.58
2023-03-03T06:07:13.818Z,101031.76
2023-03-03T06:09:44.669Z,101031.02
2023-03-03T06:12:15.612Z,101028.86
2023-03-03T06:14:46.429Z,101027.21
2023-03-03T06:17:17.334Z,101026.75
2023-03-03T06:19:48.619Z,101031.65
2023-03-03T06:22:19.488Z,101031.67
2023-03-03T06:24:50.272Z,101033.67
2023-03-03T06:27:21.329Z,101035.95
2023-03-03T06:29:52.250Z,101037.73
2023-03-03T06:32:23.120Z,101036.95
2023-03-03T06:34:53.901Z,101039.42
2023-03-03T06:37:24.666Z,101037.96
2023-03-03T06:39:55.479Z,101039.90
2023-03-03T06:42:26.474Z,101041.76
2023-03-03T06:44:57.257Z,101040.88
2023-03-03T06:47:28.144Z,101042.75
2023-03-03T06:49:59.019Z,101043.15
2023-03-03T06:52:29.736Z,101042.73
2023-03-03T06:55:00.950Z,101044.82
2023-03-03T06:57:32.306Z,101041.67
2023-03-03T07:00:07.744Z,101040.77
2023-03-03T07:02:38.522Z,101035.57
2023-03-03T07:05:11.387Z,101034.92
2023-03-03T07:07:44.616Z,101031.37
2023-03-03T07:10:18.118Z,101031.33
2023-03-03T07:12:48.935Z,101033.10
2023-03-03T07:15:22.218Z,101033.43
2023-03-03T07:17:54.514Z,101032.24
2023-03-03T07:20:26.460Z,101032.80
2023-03-03T07:22:57.283Z,101031.86
2023-03-03T07:25:30.876Z,101025.98
2023-03-03T07:28:03.354Z,101026.23
2023-03-03T07:30:34.186Z,101024.52
2023-03-03T07:33:06.505Z,101025.98
2023-03-03T07:35:40.746Z,101018.88
2023-03-03T07:38:20.828Z,101016.30
2023-03-03T07:40:53.081Z,101017.69
2023-03-03T07:43:35.375Z,101016.76
2023-03-03T07:46:16.042Z,101019.15
2023-03-03T07:48:46.986Z,101022.02
2023-03-03T07:51:22.598Z,101021.41
2023-03-03T07:53:53.697Z,101022.05
2023-03-03T07:56:36.638Z,101019.52
2023-03-03T07:59:13.474Z,101015.09
2023-03-03T08:01:45.129Z,101015.45
2023-03-03T08:04:21.045Z,101016.23
2023-03-03T08:06:53.144Z,101010.66
2023-03-03T08:09:44.328Z,101011.45
2023-03-03T08:12:29.335Z,101009.51
2023-03-03T08:15:03.375Z,101001.81
2023-03-03T08:17:38.068Z,100998.26
2023-03-03T08:20:13.070Z,101001.69
2023-03-03T08:22:43.905Z,100995.73
2023-03-03T08:25:14.820Z,100992.93
2023-03-03T08:27:45.587Z,100989.90
2023-03-03T08:30:16.846Z,100990.15
2023-03-03T08:32:47.746Z,100989.08
2023-03-03T08:35:18.821Z,100987.27
2023-03-03T08:37:49.758Z,100984.42
2023-03-03T08:40:20.641Z,100984.70
2023-03-03T08:42:51.620Z,100984.59
2023-03-03T08:45:22.447Z,100979.35
2023-03-03T08:47:53.244Z,100978.14
2023-03-03T08:50:24.198Z,100975.95
2023-03-03T08:52:55.005Z,100974.13
2023-03-03T08:55:25.828Z,100974.20
2023-03-03T08:57:56.636Z,100972.95
2023-03-03T09:00:27.786Z,100975.27
2023-03-03T09:02:58.962Z,100973.98
2023-03-03T09:05:29.817Z,100975.47
2023-03-03T09:08:00.858Z,100972.34
2023-03-03T09:10:32.271Z,100972.66
2023-03-03T09:13:09.438Z,100973.85
2023-03-03T09:15:40.703Z,100968.98
2023-03-03T09:18:14.961Z,100967.41
2023-03-03T09:20:46.273Z,100967.99
2023-03-03T09:23:31.427Z,100961.27
2023-03-03T09:26:07.731Z,100958.42
2023-03-03T09:28:38.997Z,100953.13
2023-03-03T09:31:24.255Z,100952.61
2023-03-03T09:33:58.184Z,100948.55
2023-03-03T09:36:29.673Z,100949.38
2023-03-03T09:39:00.481Z,100950.08
2023-03-03T09:41:36.095Z,100948.41
2023-03-03T09:44:29.888Z,100950.30
2023-03-03T09:47:04.645Z,100945.85
2023-03-03T09:49:36.359Z,100940.18
2023-03-03T09:52:13.127Z,100938.87
2023-03-03T09:54:48.902Z,100931.29
2023-03-03T09:57:21.278Z,100932.41
2023-03-03T10:00:01.473Z,100929.21
2023-03-03T10:02:36.179Z,100927.27
2023-03-03T10:05:15.821Z,100919.34
2023-03-03T10:07:49.526Z,100915.55
2023-03-03T10:10:23.117Z,100910.59
2023-03-03T10:12:57.045Z,100910.45
2023-03-03T10:15:35.600Z,100906.21
2023-03-03T10:18:09.966Z,100901.61
2023-03-03T10:20:50.536Z,100898.69
2023-03-03T10:23:25.920Z,100894.62
2023-03-03T10:25:58.140Z,100895.85
2023-03-03T10:28:42.335Z,100892.75
2023-03-03T10:31:18.602Z,100890.56
2023-03-03T10:33:51.528Z,100889.55
2023-03-03T10:36:33.721Z,100885.48
2023-03-03T10:39:07.239Z,100883.09
2023-03-03T10:41:42.227Z,100873.73
2023-03-03T10:44:28.524Z,100874.51
2023-03-03T10:47:12.712Z,100871.50
2023-03-03T10:49:47.134Z,100870.06
2023-03-03T10:52:21.423Z,100863.44
2023-03-03T10:55:05.854Z,100858.72
2023-03-03T10:57:38.000Z,100845.40
2023-03-03T11:00:21.095Z,100844.44
2023-03-03T11:02:58.707Z,100843.58
2023-03-03T11:05:33.199Z,100835.23
2023-03-03T11:08:05.254Z,100831.82
2023-03-03T11:10:46.758Z,100828.49
2023-03-03T11:13:19.166Z,100824.86
2023-03-03T11:15:52.729Z,100819.19
2023-03-03T11:18:25.875Z,100821.11
2023-03-03T11:20:59.926Z,100819.73
2023-03-03T11:23:44.026Z,100811.95
2023-03-03T11:26:16.361Z,100806.55
2023-03-03T11:28:50.737Z,100804.42
2023-03-03T11:31:22.826Z,100796.52
2023-03-03T11:33:56.999Z,100794.98
2023-03-03T11:36:29.178Z,100788.69
2023-03-03T11:39:00.498Z,100788.33
2023-03-03T11:41:36.200Z,100783.36
2023-03-03T11:44:12.543Z,100779.90
2023-03-03T11:46:44.335Z,100774.38
2023-03-03T11:49:17.347Z,100771.16
2023-03-03T11:51:51.812Z,100771.96
2023-03-03T11:54:24.239Z,100767.00
2023-03-03T11:56:56.532Z,100765.80
2023-03-03T11:59:33.332Z,100764.81
2023-03-03T12:02:05.271Z,100763.57
2023-03-03T12:04:37.457Z,100757.05
2023-03-03T12:07:19.117Z,100760.84
2023-03-03T12:09:53.183Z,100761.32
2023-03-03T12:12:25.296Z,100764.11
2023-03-03T12:15:01.202Z,100761.53
2023-03-03T12:17:40.636Z,100765.92
2023-03-03T12:20:13.933Z,100762.80
2023-03-03T12:22:48.642Z,100770.17
2023-03-03T12:25:22.976Z,100769.48
2023-03-03T12:27:56.405Z,100769.18
2023-03-03T12:30:34.182Z,100766.15
2023-03-03T12:33:20.732Z,100761.84
2023-03-03T12:35:54.598Z,100764.83
2023-03-03T12:38:27.220Z,100764.68
2023-03-03T12:40:59.390Z,100763.14
2023-03-03T12:43:34.742Z,100758.69
2023-03-03T12:46:07.313Z,100756.63
2023-03-03T12:48:40.394Z,100758.45
2023-03-03T12:51:14.565Z,100757.08
2023-03-03T12:53:49.495Z,100756.22
2023-03-03T12:56:21.987Z,100757.71
2023-03-03T12:58:55.874Z,100753.58
2023-03-03T13:01:31.866Z,100751.42
2023-03-03T13:04:06.403Z,100751.55
2023-03-03T13:06:39.042Z,100746.31
2023-03-03T13:09:21.540Z,100746.66
2023-03-03T13:11:59.896Z,100740.63
2023-03-03T13:14:32.937Z,100741.08
2023-03-03T13:17:05.370Z,100739.30
2023-03-03T13:19:38.530Z,100742.48
2023-03-03T13:22:09.691Z,100740.02
2023-03-03T13:24:42.989Z,100742.15
2023-03-03T13:27:16.165Z,100739.65
2023-03-03T13:29:50.575Z,100740.52
2023-03-03T13:32:22.741Z,100741.41
2023-03-03T13:34:54.925Z,100745.73
2023-03-03T13:37:26.172Z,100742.98
2023-03-03T13:39:59.409Z,100745.27
2023-03-03T13:42:32.430Z,100741.55
2023-03-03T13:45:03.301Z,100736.19
2023-03-03T13:47:35.531Z,100738.31
2023-03-03T13:50:10.452Z,100733.91
2023-03-03T13:52:42.436Z,100732.15
2023-03-03T13:55:15.446Z,100738.28
2023-03-03T13:58:00.156Z,100736.49
2023-03-03T14:00:38.461Z,100733.08
2023-03-03T14:03:14.892Z,100731.08
2023-03-03T14:05:46.969Z,100726.58
2023-03-03T14:08:21.212Z,100721.98
2023-03-03T14:10:54.925Z,100722.41
2023-03-03T14:13:27.627Z,100721.98
2023-03-03T14:16:00.284Z,100720.34
2023-03-03T14:18:32.158Z,100726.13
2023-03-03T14:21:05.318Z,100723.03
2023-03-03T14:23:40.970Z,100721.55
2023-03-03T14:26:12.484Z,100720.52
2023-03-03T14:28:45.362Z,100718.29
2023-03-03T14:31:24.224Z,100718.68
2023-03-03T14:34:01.051Z,100717.91
2023-03-03T14:36:32.888Z,100718.86
2023-03-03T14:39:03.777Z,100722.04
2023-03-03T14:41:40.492Z,100722.02
2023-03-03T14:44:31.985Z,100725.16
2023-03-03T14:47:19.163Z,100723.84
2023-03-03T14:49:50.905Z,100723.08
2023-03-03T14:52:23.837Z,100720.33
2023-03-03T14:54:55.536Z,100719.84
2023-03-03T14:57:41.855Z,100722.51
2023-03-03T15:00:29.339Z,100725.02
2023-03-03T15:03:06.819Z,100727.69
2023-03-03T15:05:38.011Z,100726.80
2023-03-03T15:08:12.429Z,100724.09
2023-03-03T15:10:44.279Z,100725.64
2023-03-03T15:13:33.252Z,100723.84
2023-03-03T15:16:05.585Z,100722.14
2023-03-03T15:18:36.634Z,100718.90
2023-03-03T15:21:07.981Z,100719.17
2023-03-03T15:23:43.009Z,100718.29
2023-03-03T15:26:14.779Z,100718.86
2023-03-03T15:28:52.270Z,100718.27
2023-03-03T15:31:24.383Z,100723.27
2023-03-03T15:34:04.055Z,100721.67
2023-03-03T15:36:38.042Z,100727.16
2023-03-03T15:39:12.739Z,100725.11
2023-03-03T15:41:45.782Z,100723.54
2023-03-03T15:51:17.041Z,100725.15
2023-03-03T15:54:01.022Z,100727.10
2023-03-03T15:56:33.447Z,100730.18
2023-03-03T15:59:23.885Z,100729.52
2023-03-03T16:01:57.665Z,100735.66
2023-03-03T16:04:30.019Z,100741.48
2023-03-03T16:07:01.994Z,100744.70
2023-03-03T16:09:39.291Z,100742.80
2023-03-03T16:12:12.329Z,100742.02
2023-03-03T16:14:48.220Z,100741.56
2023-03-03T16:17:22.805Z,100742.98
2023-03-03T16:19:57.200Z,100741.68
2023-03-03T16:22:40.812Z,100748.99
2023-03-03T16:25:25.461Z,100751.31
2023-03-03T16:27:57.727Z,100749.89
2023-03-03T16:30:30.668Z,100752.50
2023-03-03T16:33:07.933Z,100761.26
2023-03-03T16:35:40.097Z,100763.15
2023-03-03T16:38:13.032Z,100769.52
2023-03-03T16:40:47.306Z,100774.91
2023-03-03T16:43:20.819Z,100772.52
2023-03-03T16:45:51.774Z,100776.69
2023-03-03T16:48:24.443Z,100777.11
2023-03-03T16:51:00.858Z,100774.08
2023-03-03T16:53:44.293Z,100782.33
2023-03-03T16:56:18.913Z,100779.49
2023-03-03T16:58:54.410Z,100784.09
2023-03-03T17:01:28.452Z,100785.26
2023-03-03T17:04:04.947Z,100786.14
2023-03-03T17:06:42.768Z,100787.80
2023-03-03T17:09:33.674Z,100790.29
2023-03-03T17:12:07.908Z,100786.24
2023-03-03T17:14:54.334Z,100787.28
2023-03-03T17:17:30.844Z,100786.27
2023-03-03T17:20:09.232Z,100783.52
2023-03-03T17:22:46.601Z,100786.27
2023-03-03T17:25:19.689Z,100787.33
2023-03-03T17:27:55.273Z,100789.95
2023-03-03T17:30:27.239Z,100788.52
2023-03-03T17:33:12.617Z,100790.23
2023-03-03T17:35:47.659Z,100787.88
2023-03-03T17:38:20.210Z,100794.71
2023-03-03T17:40:53.187Z,100800.01
2023-03-03T17:43:24.998Z,100798.64
2023-03-03T17:45:56.579Z,100803.05
2023-03-03T17:48:46.063Z,100809.55
2023-03-03T17:51:26.285Z,100802.73
2023-03-03T17:54:09.792Z,100812.52
2023-03-03T17:56:51.187Z,100810.45
2023-03-03T17:59:25.294Z,100811.82
2023-03-03T18:02:05.517Z,100815.13
2023-03-03T18:04:53.384Z,100814.59
2023-03-03T18:07:36.576Z,100819.14
2023-03-03T18:10:11.465Z,100820.48
2023-03-03T18:12:44.013Z,100819.95
2023-03-03T18:15:28.208Z,100820.79
2023-03-03T18:18:11.383Z,100816.73
2023-03-03T18:20:45.505Z,100817.96
2023-03-03T18:23:34.225Z,100823.91
2023-03-03T18:26:05.219Z,100827.16
2023-03-03T18:28:45.560Z,100826.73
2023-03-03T18:31:24.563Z,100829.96
2023-03-03T18:34:10.787Z,100832.08
2023-03-03T18:36:53.414Z,100832.83
2023-03-03T18:42:38.393Z,100829.04
2023-03-03T18:45:28.432Z,100833.58
2023-03-03T18:48:10.633Z,100832.16
2023-03-03T18:50:42.337Z,100831.41
2023-03-03T18:53:20.468Z,100830.86
2023-03-03T18:55:52.050Z,100830.23
2023-03-03T18:58:36.413Z,100826.13
2023-03-03T19:01:13.718Z,100826.16
2023-03-03T19:04:04.736Z,100829.26
2023-03-03T19:06:55.421Z,100829.35
2023-03-03T19:09:39.594Z,100833.50
2023-03-03T19:12:14.079Z,100836.77
2023-03-03T19:14:46.158Z,100837.62
2023-03-03T19:17:30.349Z,100838.33
2023-03-03T19:20:02.686Z,100840.33
2023-03-03T19:22:33.428Z,100841.55
2023-03-03T19:25:17.447Z,100844.22
2023-03-03T19:27:49.320Z,100847.19
2023-03-03T19:30:23.805Z,100848.56
2023-03-03T19:33:17.107Z,100846.97
2023-03-03T19:35:59.478Z,100851.83
2023-03-03T19:38:32.594Z,100853.00
2023-03-03T19:41:09.133Z,100857.02
2023-03-03T19:43:42.000Z,100855.86
2023-03-03T19:46:18.470Z,100856.06
2023-03-03T19:48:50.096Z,100851.23
2023-03-03T19:51:24.068Z,100850.66
2023-03-03T19:53:55.314Z,100855.02
2023-03-03T19:56:29.742Z,100857.08
2023-03-03T19:59:16.829Z,100857.44
2023-03-03T20:01:49.924Z,100857.09
2023-03-03T20:04:29.852Z,100857.92
2023-03-03T20:07:02.739Z,100859.02
2023-03-03T20:09:36.785Z,100857.11
2023-03-03T20:12:24.219Z,100862.09
2023-03-03T20:14:57.978Z,100863.41
2023-03-03T20:17:41.190Z,100868.59
2023-03-03T20:20:29.025Z,100875.64
2023-03-03T20:23:03.674Z,100871.14
2023-03-03T20:25:37.798Z,100875.16
2023-03-03T20:28:11.995Z,100875.95
2023-03-03T20:30:51.682Z,100880.76
2023-03-03T20:33:26.818Z,100876.48
2023-03-03T20:36:00.636Z,100879.89
2023-03-03T20:38:33.671Z,100879.05
2023-03-03T20:41:07.005Z,100878.42
2023-03-03T20:43:43.470Z,100876.05
2023-03-03T20:46:17.138Z,100873.32
2023-03-03T20:48:51.899Z,100869.98
2023-03-03T20:51:25.349Z,100873.16
2023-03-03T20:53:57.201Z,100873.02
2023-03-03T20:56:29.972Z,100873.23
2023-03-03T20:59:03.837Z,100873.91
2023-03-03T21:01:37.007Z,100874.36
2023-03-03T21:04:21.183Z,100871.07
2023-03-03T21:06:52.114Z,100879.13
2023-03-03T21:09:30.118Z,100878.52
2023-03-03T21:12:01.272Z,100880.04
2023-03-03T21:14:33.261Z,100879.90
2023-03-03T21:17:12.950Z,100880.18
2023-03-03T21:19:43.577Z,100881.15
2023-03-03T21:22:14.289Z,100884.64
2023-03-03T21:24:52.360Z,100883.23
2023-03-03T21:27:27.803Z,100886.30
2023-03-03T21:30:06.168Z,100886.97
2023-03-03T21:32:38.140Z,100890.42
2023-03-03T21:35:10.542Z,100890.27
2023-03-03T21:37:45.466Z,100887.16
2023-03-03T21:40:16.908Z,100886.92
2023-03-03T21:42:47.904Z,100885.44
2023-03-03T21:45:20.682Z,100885.11
2023-03-03T21:47:51.604Z,100890.74
2023-03-03T21:50:22.733Z,100892.61
2023-03-03T21:52:53.450Z,100895.14
2023-03-03T21:55:26.558Z,100897.44
2023-03-03T21:57:57.909Z,100901.60
2023-03-03T22:00:28.790Z,100900.60
2023-03-03T22:03:00.922Z,100897.64
2023-03-03T22:05:31.755Z,100900.94
2023-03-03T22:08:02.496Z,100899.10
2023-03-03T22:10:33.162Z,100899.75
2023-03-03T22:13:03.880Z,100897.16
2023-03-03T22:15:34.718Z,100894.38
2023-03-03T22:18:05.762Z,100891.12
2023-03-03T22:26:47.910Z,100891.47
2023-03-03T22:29:23.039Z,100892.61
2023-03-03T22:31:54.202Z,100893.41
2023-03-03T22:34:25.346Z,100891.58
2023-03-03T22:36:56.251Z,100890.63
2023-03-03T22:39:27.025Z,100888.50
2023-03-03T22:41:57.917Z,100881.17
2023-03-03T22:44:28.636Z,100882.23
2023-03-03T22:46:59.347Z,100885.91
2023-03-03T22:49:30.049Z,100884.09
2023-03-03T22:52:02.708Z,100889.85
2023-03-03T22:54:33.770Z,100892.20
2023-03-03T22:57:04.713Z,100890.95
2023-03-03T22:59:35.387Z,100884.72
2023-03-03T23:02:06.230Z,100880.56
2023-03-03T23:04:37.048Z,100880.48
2023-03-03T23:07:08.137Z,100878.27
2023-03-03T23:09:39.379Z,100875.87
2023-03-03T23:12:10.282Z,100872.66
2023-03-03T23:14:40.915Z,100872.46
2023-03-03T23:17:12.371Z,100870.66
2023-03-03T23:19:43.695Z,100870.71
2023-03-03T23:22:14.716Z,100871.94
2023-03-03T23:24:45.920Z,100875.88
2023-03-03T23:27:16.560Z,100875.56
2023-03-03T23:29:47.383Z,100876.34
2023-03-03T23:32:18.116Z,100876.09
2023-03-03T23:34:48.826Z,100872.08
2023-03-03T23:37:20.010Z,100870.53
2023-03-03T23:39:51.368Z,100867.68
2023-03-03T23:42:23.089Z,100871.40
2023-03-03T23:44:54.580Z,100871.20
2023-03-03T23:47:25.828Z,100876.04
2023-03-03T23:49:57.026Z,100874.39
2023-03-03T23:52:28.036Z,100879.67
2023-03-03T23:54:59.593Z,100877.61
2023-03-03T23:57:31.051Z,100877.61
